KGNT/GNT METAR and TAF weather

Enter ICAO airport designator
Station Type Date Time Source
KGNT METAR 2019/04/19 08:15 UTC NOAA

KGNT 190815Z AUTO 32006KT 10SM CLR 02/M03 A3031 RMK AO2 T00191026


Station Type Date Time Source
KGNT Decoded METAR 2019/04/19 08:15 UTC NOAA

GRANTS-MILAN MUNICIPAL AIRPORT , NM, United States (KGNT) 35-10N 107-54W 1987M
Apr 19, 2019 - 04:15 AM EDT / 2019.04.19 0815 UTC
Wind: from the NW (320 degrees) at 7 MPH (6 KT):0
Visibility: 10 mile(s):0
Sky conditions: clear
Temperature: 35.4 F (1.9 C)
Dew Point: 27.3 F (-2.6 C)
Relative Humidity: 72%
Pressure (altimeter): 30.31 in. Hg (1026 hPa)
ob: KGNT 190815Z AUTO 32006KT 10SM CLR 02/M03 A3031 RMK AO2 T00191026
cycle: 8

Station Type Date Time Source
KGNT TAF UTC NOAA

Error!

Example: see airport list